KGTB

Wheeler-Sack AAF Airport

Fort Drum, New York, USA
TAF KGTB 210900Z 2109/2215 15006KT 9999 FEW250 QNH3004INS BECMG 2114/2115 14010G15KT 9999 FEW200 QNH2996INS BECMG 2123/2124 12006KT 9999 SCT250 QNH2994INS BECMG 2205/2206 08006KT 9999 SCT180 BKN240 QNH2989INS BECMG 2208/2209 05009KT 9000 -RA BKN020 OVC040 510253 QNH2978INS BECMG 2210/2212 07009KT 8000 -RA BKN018 OVC040 WS020/10040KT QNH2976INS BECMG 2214/2215 11012KT 9000 -RA OVC020 510203 QNH2976INS TX30/2120Z TN17/2110Z
Issued Valid From Valid To
Jul-21 @ 09:00 UTC
(54 minutes ago)
Jul-21 @ 09:00 UTC
(54 minutes ago)
Jul-22 @ 15:00 UTC
(-1 days ago)
Jul-21 @ 09:00 to Jul-21 @ 14:00
TAF KGTB 210900Z 2109/2215 15006KT 9999 FEW250 QNH3004INS
Wind Visibility Clouds Readings
150° at 6 knots Greater than 6 miles
  • Few at 25,000' AGL
Altimeter 30.03" Hg
Pressure 1017 hPa
Becoming Jul-21 @ 14:00 to Jul-21 @ 23:00
BECMG 2114/2115 14010G15KT 9999 FEW200 QNH2996INS
Wind Visibility Clouds Readings
140° at 10 knots
 Gusting to 15 knots
Greater than 6 miles
  • Few at 20,000' AGL
Altimeter 29.97" Hg
Pressure 1015 hPa
Becoming Jul-21 @ 23:00 to Jul-22 @ 05:00
BECMG 2123/2124 12006KT 9999 SCT250 QNH2994INS
Wind Visibility Clouds Readings
120° at 6 knots Greater than 6 miles
  • Scattered at 25,000' AGL
Altimeter 29.94" Hg
Pressure 1014 hPa
Becoming Jul-22 @ 05:00 to Jul-22 @ 08:00
BECMG 2205/2206 08006KT 9999 SCT180 BKN240 QNH2989INS
Wind Visibility Clouds Readings
80° at 6 knots Greater than 6 miles
  • Scattered at 18,000' AGL
  • Broken at 24,000' AGL
Altimeter 29.88" Hg
Pressure 1012 hPa
Becoming Jul-22 @ 08:00 to Jul-22 @ 10:00
BECMG 2208/2209 05009KT 9000 -RA BKN020 OVC040 510253 QNH2978INS
Wind Visibility Clouds Conditions Readings Turbulence
50° at 9 knots 51/59 miles
  • Broken at 2,000' AGL
  • Overcast at 4,000' AGL
  • Light Rain
Altimeter 29.79" Hg
Pressure 1009 hPa
Light turbulence expected at 2,500' AGL extending to 5,500' AGL
Becoming Jul-22 @ 10:00 to Jul-22 @ 14:00
BECMG 2210/2212 07009KT 8000 -RA BKN018 OVC040 WS020/10040KT QNH2976INS
Wind Visibility Clouds Conditions Readings
70° at 9 knots
 Wind shear 2,000' AGL from 100° at 40 knots
41/97 miles
  • Broken at 1,800' AGL
  • Overcast at 4,000' AGL
  • Light Rain
Altimeter 29.76" Hg
Pressure 1008 hPa
Becoming Jul-22 @ 14:00 to Jul-22 @ 15:00
BECMG 2214/2215 11012KT 9000 -RA OVC020 510203 QNH2976INS TX30/2120Z TN17/2110Z
Wind Visibility Clouds Conditions Readings Turbulence
110° at 12 knots 51/59 miles
  • Overcast at 2,000' AGL
  • Light Rain
Altimeter 29.76" Hg
Pressure 1008 hPa
Light turbulence expected at 2,000' AGL extending to 5,000' AGL
TAF KGTB 210900Z 2109/2215 15006KT 9999 FEW250 QNH3004INS BECMG 2114/2115 14010G15KT 9999 FEW200 QNH2996INS BECMG 2123/2124 12006KT 9999 SCT250 QNH2994INS BECMG 2205/2206 08006KT 9999 SCT180 BKN240 QNH2989INS BECMG 2208/2209 05009KT 9000 -RA BKN020 OVC040 510253 QNH2978INS BECMG 2210/2212 07009KT 8000 -RA BKN018 OVC040 WS020/10040KT QNH2976INS BECMG 2214/2215 11012KT 9000 -RA OVC020 510203 QNH2976INS TX30/2120Z TN17/2110Z
Issued Jul-21 @ 09:00 UTC
(54 minutes ago)
Valid From Jul-21 @ 09:00 UTC
(54 minutes ago)
Valid To Jul-22 @ 15:00 UTC
(-1 days ago)
Jul-21 @ 09:00 - Jul-21 @ 14:00
Wind Visibility
150° at 6 knots Greater than 6 miles
Clouds
  • Few at 25,000' AGL
Becoming Jul-21 @ 14:00 - Jul-21 @ 23:00
Wind Visibility
140° at 10 knots
 Gusting to 15 knots
Greater than 6 miles
Clouds
  • Few at 20,000' AGL
Becoming Jul-21 @ 23:00 - Jul-22 @ 05:00
Wind Visibility
120° at 6 knots Greater than 6 miles
Clouds
  • Scattered at 25,000' AGL
Becoming Jul-22 @ 05:00 - Jul-22 @ 08:00
Wind Visibility
80° at 6 knots Greater than 6 miles
Clouds
  • Scattered at 18,000' AGL
  • Broken at 24,000' AGL
Becoming Jul-22 @ 08:00 - Jul-22 @ 10:00
Wind Visibility
50° at 9 knots 51/59 miles
Clouds
  • Broken at 2,000' AGL
  • Overcast at 4,000' AGL
Conditions
  • Light Rain
Becoming Jul-22 @ 10:00 - Jul-22 @ 14:00
Wind Visibility
70° at 9 knots 41/97 miles
Clouds
  • Broken at 1,800' AGL
  • Overcast at 4,000' AGL
Conditions
  • Light Rain
Becoming Jul-22 @ 14:00 - Jul-22 @ 15:00
Wind Visibility
110° at 12 knots 51/59 miles
Clouds
  • Overcast at 2,000' AGL
Conditions
  • Light Rain